Terminal Aerodrome Forecast
Issued by NWS

Home | Current Version | Previous Version | Text Only | Print | Product List | Glossary On
Versions: 1 2 3 4 5 6 7 8 9 10 11 12
000
FTUS45 KABQ 310500
TAFAEG
TAF
KAEG 310520Z 3106/0106 19007KT P6SM FEW250
     FM311730 25010G20KT P6SM FEW100
     FM010200 21009KT P6SM SKC=

USA.gov is the U.S. government's official web portal to all federal, state and local government web resources and services.